Archiv-/Tagesdaten

--Timestamp---	Temp	Chill	HIndex	Humid	Dewpt	Wind	HiWind	WindDir	Rain	Barom	        Solar	ET	UV
--------------	----	-----	------	-----	-----	----	------	-------	----	-----	        -----	--	--
20090402 00:05	7.8	6.5	7.8	87	5.8	8	14	67	0.00	1015.242	0	0.000	0
20090402 00:10	7.9	6.9	7.9	87	5.9	6	16	67	0.00	1015.208	0	0.000	0
20090402 00:15	7.9	6.9	7.9	87	5.9	6	13	67	0.00	1015.174	0	0.000	0
20090402 00:20	7.9	7.9	7.9	87	5.9	3	8	90	0.00	1015.208	0	0.000	0
20090402 00:25	7.9	7.9	7.9	87	5.9	5	11	67	0.00	1015.242	0	0.000	0
20090402 00:30	8.0	8.0	8.0	87	6.0	3	8	67	0.00	1015.344	0	0.000	0
20090402 00:35	8.0	8.0	8.0	87	6.0	3	10	112	0.00	1015.378	0	0.000	0
20090402 00:40	8.1	8.1	8.1	87	6.0	3	6	67	0.00	1015.276	0	0.000	0
20090402 00:45	8.1	8.1	8.1	87	6.0	5	11	67	0.00	1015.276	0	0.000	0
20090402 00:50	8.1	8.1	8.1	87	6.1	5	11	90	0.00	1015.242	0	0.000	0
20090402 00:55	8.1	8.1	8.1	87	6.1	5	10	67	0.00	1015.242	0	0.000	0
20090402 01:00	8.1	8.1	8.1	87	6.1	5	10	67	0.00	1015.208	0	0.000	0
20090402 01:05	8.1	7.2	8.1	87	6.1	6	14	67	0.00	1014.768	0	0.000	0
20090402 01:10	8.1	7.2	8.1	87	6.1	6	14	67	0.00	1014.768	0	0.000	0
20090402 01:15	8.1	8.1	8.1	87	6.1	5	10	67	0.00	1014.633	0	0.000	0
20090402 01:20	8.1	8.1	8.1	88	6.2	5	10	67	0.00	1014.734	0	0.000	0
20090402 01:25	8.2	8.2	8.2	88	6.3	3	8	90	0.00	1014.633	0	0.000	0
20090402 01:30	8.2	8.2	8.2	88	6.3	2	6	90	0.00	1014.836	0	0.000	0
20090402 01:35	8.2	8.2	8.2	88	6.4	2	8	135	0.00	1014.768	0	0.000	0
20090402 01:40	8.3	8.3	8.3	88	6.4	5	13	112	0.00	1014.734	0	0.000	0
20090402 01:45	8.3	8.3	8.3	88	6.5	5	11	90	0.00	1014.734	0	0.000	0
20090402 01:50	8.4	8.4	8.4	88	6.5	3	8	112	0.00	1014.666	0	0.000	0
20090402 01:55	8.4	8.4	8.4	88	6.6	3	8	135	0.00	1014.666	0	0.000	0
20090402 02:00	8.5	8.5	8.5	88	6.6	5	10	135	0.00	1014.734	0	0.000	0
20090402 02:05	8.6	7.3	8.6	88	6.7	8	18	112	0.00	1014.565	0	0.000	0
20090402 02:10	8.7	7.4	8.7	88	6.8	8	18	112	0.00	1014.396	0	0.000	0
20090402 02:15	8.8	7.6	8.8	87	6.7	8	18	90	0.00	1014.396	0	0.000	0
20090402 02:20	8.8	7.0	8.8	87	6.8	11	21	112	0.00	1014.396	0	0.000	0
20090402 02:25	8.9	7.4	8.9	87	6.8	10	23	90	0.00	1014.396	0	0.000	0
20090402 02:30	8.9	7.4	8.9	87	6.8	10	23	112	0.00	1014.396	0	0.000	0
20090402 02:35	8.9	7.1	8.9	87	6.8	11	21	112	0.00	1014.362	0	0.000	0
20090402 02:40	8.9	8.1	8.9	87	6.8	6	18	135	0.00	1014.328	0	0.000	0
20090402 02:45	8.8	7.6	8.8	87	6.8	8	19	112	0.00	1014.294	0	0.000	0
20090402 02:50	8.8	7.6	8.8	87	6.8	8	16	135	0.00	1014.362	0	0.000	0
20090402 02:55	8.8	6.8	8.8	87	6.8	13	24	112	0.00	1014.362	0	0.000	0
20090402 03:00	8.8	6.8	8.8	87	6.8	13	26	112	0.00	1014.429	0	0.020	0
20090402 03:05	8.8	7.0	8.8	87	6.8	11	21	112	0.00	1014.362	0	0.000	0
20090402 03:10	8.8	6.8	8.8	87	6.8	13	24	112	0.00	1014.362	0	0.000	0
20090402 03:15	8.9	6.9	8.9	87	6.8	13	23	112	0.00	1014.396	0	0.000	0
20090402 03:20	8.9	6.4	8.9	87	6.8	16	31	112	0.00	1014.328	0	0.000	0
20090402 03:25	8.9	7.4	8.9	87	6.8	10	21	112	0.00	1014.226	0	0.000	0
20090402 03:30	8.9	6.9	8.9	87	6.8	13	23	112	0.00	1014.260	0	0.000	0
20090402 03:35	8.8	7.6	8.8	87	6.8	8	18	112	0.00	1014.159	0	0.000	0
20090402 03:40	8.8	8.0	8.8	87	6.8	6	18	112	0.00	1014.023	0	0.000	0
20090402 03:45	8.8	8.8	8.8	87	6.8	5	16	112	0.00	1014.023	0	0.000	0
20090402 03:50	8.8	7.6	8.8	87	6.8	8	19	112	0.00	1014.023	0	0.000	0
20090402 03:55	8.8	7.6	8.8	87	6.8	8	19	112	0.00	1014.091	0	0.000	0
20090402 04:00	8.8	7.6	8.8	87	6.8	8	19	112	0.00	1014.091	0	0.020	0
20090402 04:05	8.9	7.4	8.9	86	6.7	10	24	112	0.00	1013.989	0	0.000	0
20090402 04:10	8.9	7.4	8.9	86	6.7	10	21	112	0.00	1014.023	0	0.000	0
20090402 04:15	8.9	6.9	8.9	86	6.7	13	29	112	0.00	1013.922	0	0.000	0
20090402 04:20	8.9	8.1	8.9	86	6.7	6	18	112	0.00	1013.888	0	0.000	0
20090402 04:25	8.9	7.4	8.9	86	6.7	10	19	112	0.00	1013.955	0	0.000	0
20090402 04:30	8.9	6.9	8.9	86	6.7	13	23	112	0.00	1013.955	0	0.000	0
20090402 04:35	8.9	7.8	8.9	86	6.7	8	21	112	0.00	1013.888	0	0.000	0
20090402 04:40	8.9	7.4	8.9	86	6.7	10	23	90	0.00	1013.820	0	0.000	0
20090402 04:45	8.9	7.2	8.9	86	6.7	11	23	112	0.00	1013.786	0	0.000	0
20090402 04:50	8.9	8.9	8.9	86	6.7	3	10	112	0.00	1013.752	0	0.000	0
20090402 04:55	8.8	8.0	8.8	86	6.6	6	21	112	0.00	1013.820	0	0.000	0
20090402 05:00	8.8	8.0	8.8	86	6.6	6	16	90	0.00	1013.752	0	0.020	0
20090402 05:05	8.8	8.8	8.8	86	6.6	5	11	90	0.00	1013.786	0	0.000	0
20090402 05:10	8.8	8.0	8.8	86	6.6	6	14	112	0.00	1013.752	0	0.000	0
20090402 05:15	8.8	7.0	8.8	86	6.6	11	24	135	0.00	1013.752	0	0.000	0
20090402 05:20	8.8	8.0	8.8	86	6.6	6	19	112	0.00	1013.651	0	0.000	0
20090402 05:25	8.8	8.0	8.8	86	6.6	6	21	67	0.00	1013.684	0	0.000	0
20090402 05:30	8.8	7.2	8.8	86	6.6	10	23	112	0.00	1013.583	0	0.000	0
20090402 05:35	8.7	7.9	8.7	86	6.5	6	14	112	0.00	1013.515	0	0.000	0
20090402 05:40	8.7	7.9	8.7	86	6.5	6	21	135	0.00	1013.515	0	0.000	0
20090402 05:45	8.7	8.7	8.7	86	6.5	3	8	90	0.00	1013.549	0	0.000	0
20090402 05:50	8.7	8.7	8.7	86	6.5	5	11	135	0.00	1013.651	0	0.000	0
20090402 05:55	8.7	7.8	8.7	86	6.5	6	18	135	0.00	1013.651	0	0.000	0
20090402 06:00	8.7	6.8	8.7	86	6.5	11	24	112	0.00	1013.617	0	0.020	0
20090402 06:05	8.7	6.6	8.7	85	6.3	13	21	112	0.00	1013.786	0	0.000	0
20090402 06:10	8.7	6.4	8.7	85	6.3	14	24	112	0.00	1013.786	0	0.000	0
20090402 06:15	8.7	6.4	8.7	85	6.3	14	24	112	0.00	1013.718	0	0.000	0
20090402 06:20	8.6	6.3	8.6	85	6.2	14	24	112	0.00	1013.786	0	0.000	0
20090402 06:25	8.6	6.8	8.6	85	6.2	11	23	112	0.00	1013.820	0	0.000	0
20090402 06:30	8.6	6.7	8.6	85	6.2	11	24	112	0.00	1013.786	0	0.000	0
20090402 06:35	8.6	7.7	8.6	85	6.2	6	16	90	0.00	1013.854	0	0.000	0
20090402 06:40	8.5	6.9	8.5	85	6.1	10	19	112	0.00	1013.854	0	0.000	0
20090402 06:45	8.5	7.2	8.5	85	6.1	8	18	112	0.00	1013.854	0	0.000	0
20090402 06:50	8.4	6.9	8.4	85	6.1	10	23	112	0.00	1014.023	0	0.000	0
20090402 06:55	8.4	6.9	8.4	85	6.1	10	21	112	0.00	1014.023	0	0.000	0
20090402 07:00	8.4	7.6	8.4	86	6.2	6	18	112	0.00	1013.922	0	0.020	0
20090402 07:05	8.4	8.4	8.4	86	6.2	5	14	90	0.00	1014.023	6	0.000	0
20090402 07:10	8.3	8.3	8.3	86	6.1	5	8	112	0.00	1014.091	9	0.000	0
20090402 07:15	8.3	8.3	8.3	86	6.1	5	13	135	0.00	1014.159	10	0.000	0
20090402 07:20	8.3	8.3	8.3	86	6.1	5	21	112	0.00	1014.091	15	0.000	0
20090402 07:25	8.3	8.3	8.3	86	6.1	3	11	112	0.00	1014.057	19	0.000	0
20090402 07:30	8.3	8.3	8.3	86	6.1	5	11	112	0.00	1014.091	26	0.000	0
20090402 07:35	8.3	6.4	8.3	85	6.0	11	21	112	0.00	1014.226	26	0.000	0
20090402 07:40	8.3	7.1	8.3	85	6.0	8	19	112	0.00	1014.260	25	0.000	0
20090402 07:45	8.3	6.4	8.3	85	6.0	11	21	112	0.00	1014.260	27	0.000	0
20090402 07:50	8.3	7.0	8.3	85	5.9	8	23	112	0.00	1014.260	33	0.000	0
20090402 07:55	8.3	6.1	8.3	85	5.9	13	21	112	0.00	1014.226	40	0.000	0
20090402 08:00	8.3	6.1	8.3	85	5.9	13	26	112	0.00	1014.260	42	0.020	0
20090402 08:05	8.3	6.7	8.3	85	6.0	10	24	112	0.00	1014.362	38	0.000	0
20090402 08:10	8.3	7.1	8.3	86	6.1	8	19	112	0.00	1014.362	40	0.000	0
20090402 08:15	8.3	7.4	8.3	85	6.0	6	14	90	0.00	1014.362	42	0.000	0
20090402 08:20	8.3	8.3	8.3	86	6.1	5	18	135	0.00	1014.362	56	0.000	0
20090402 08:25	8.3	7.1	8.3	85	6.0	8	18	112	0.00	1014.362	68	0.000	0
20090402 08:30	8.3	6.7	8.3	85	6.0	10	18	112	0.00	1014.328	96	0.000	0
20090402 08:35	8.5	8.5	8.5	86	6.3	5	11	135	0.00	1014.328	118	0.000	0
20090402 08:40	8.6	7.3	8.6	85	6.2	8	18	135	0.00	1014.362	80	0.000	0
20090402 08:45	8.6	7.7	8.6	85	6.2	6	14	112	0.00	1014.429	88	0.000	0
20090402 08:50	8.6	7.7	8.6	85	6.2	6	11	135	0.00	1014.463	111	0.000	0
20090402 08:55	8.6	8.6	8.6	85	6.2	5	16	112	0.00	1014.396	107	0.000	0
20090402 09:00	8.7	7.4	8.7	85	6.3	8	16	112	0.00	1014.362	125	0.040	0
20090402 09:05	8.7	7.4	8.7	84	6.1	8	19	112	0.00	1014.328	154	0.000	1
20090402 09:10	8.8	8.0	8.8	84	6.2	6	14	112	0.00	1014.294	158	0.000	1
20090402 09:15	8.8	7.2	8.8	84	6.2	10	18	112	0.00	1014.328	165	0.000	1
20090402 09:20	8.9	8.2	8.9	84	6.4	6	16	112	0.00	1014.463	169	0.000	1
20090402 09:25	9.1	9.1	9.1	84	6.5	5	11	90	0.00	1014.362	198	0.000	1
20090402 09:30	9.2	9.2	9.2	84	6.7	5	14	135	0.00	1014.497	175	0.000	1
20090402 09:35	9.3	8.2	9.3	83	6.6	8	18	112	0.00	1014.463	117	0.000	1
20090402 09:40	9.4	8.7	9.4	83	6.7	6	14	112	0.00	1014.463	126	0.000	1
20090402 09:45	9.6	9.6	9.6	82	6.7	5	14	90	0.00	1014.429	116	0.000	1
20090402 09:50	9.8	9.2	9.8	81	6.7	6	16	135	0.00	1014.429	115	0.000	1
20090402 09:55	9.9	9.3	9.9	81	6.8	6	14	135	0.00	1014.463	122	0.000	1
20090402 10:00	10.1	10.1	10.1	81	7.0	5	11	135	0.00	1014.396	118	0.060	1
20090402 10:05	10.3	10.3	10.3	80	7.0	5	11	135	0.00	1014.565	98	0.000	1
20090402 10:10	10.6	10.6	10.6	80	7.3	6	16	135	0.00	1014.633	89	0.000	2
20090402 10:15	10.9	10.9	10.9	78	7.3	8	16	112	0.00	1014.633	86	0.000	2
20090402 10:20	11.3	11.3	11.3	75	7.0	10	19	112	0.00	1014.633	85	0.000	2
20090402 10:25	11.4	11.4	11.4	75	7.2	8	18	112	0.00	1014.463	84	0.000	2
20090402 10:30	11.6	11.6	11.6	73	6.9	11	23	112	0.00	1014.463	84	0.000	2
20090402 10:35	11.8	11.8	11.8	73	7.1	10	21	112	0.00	1014.463	83	0.000	2
20090402 10:40	12.0	12.0	12.0	71	6.9	13	26	112	0.00	1014.463	81	0.000	2
20090402 10:45	12.2	12.2	12.2	71	7.1	13	26	112	0.00	1014.531	83	0.000	2
20090402 10:50	12.4	12.4	12.4	70	7.1	13	23	112	0.00	1014.497	84	0.000	2
20090402 10:55	12.6	12.6	12.6	70	7.2	11	23	112	0.00	1014.362	86	0.000	2
20090402 11:00	12.9	12.9	12.9	68	7.1	11	21	112	0.00	1014.328	89	0.060	2
20090402 11:05	13.1	13.1	13.1	69	7.5	8	18	112	0.00	1014.328	90	0.000	2
20090402 11:10	13.3	13.3	13.3	69	7.8	8	18	112	0.00	1014.226	97	0.000	2
20090402 11:15	13.6	13.6	13.6	68	7.8	8	18	90	0.00	1014.192	600	0.000	2
20090402 11:20	13.8	13.8	13.8	67	7.8	11	23	112	0.00	1014.226	614	0.000	4
20090402 11:25	14.1	14.1	14.1	66	7.9	6	24	67	0.00	1014.260	622	0.000	4
20090402 11:30	14.3	14.3	14.3	66	8.1	8	18	90	0.00	1014.057	629	0.000	4
20090402 11:35	14.6	14.6	14.6	67	8.5	8	16	112	0.00	1013.989	638	0.000	4
20090402 11:40	14.9	14.9	14.9	65	8.4	8	16	67	0.00	1013.989	646	0.000	4
20090402 11:45	14.9	14.9	14.9	64	8.2	8	16	90	0.00	1013.922	655	0.000	4
20090402 11:50	15.0	15.0	15.0	64	8.2	6	16	90	0.00	1013.922	662	0.000	4
20090402 11:55	15.3	15.3	15.3	64	8.5	10	21	90	0.00	1013.922	669	0.000	4
20090402 12:00	15.6	15.6	15.6	63	8.5	8	18	90	0.00	1013.786	678	0.240	4
20090402 12:05	15.8	15.8	15.8	62	8.5	13	26	112	0.00	1013.718	685	0.000	4
20090402 12:10	15.9	15.9	15.9	62	8.7	14	21	112	0.00	1013.684	687	0.000	4
20090402 12:15	16.3	16.3	16.3	61	8.7	11	24	112	0.00	1013.617	690	0.000	5
20090402 12:20	16.4	16.4	16.4	61	8.8	11	21	112	0.00	1013.684	701	0.000	5
20090402 12:25	16.7	16.7	16.7	60	8.9	13	29	112	0.00	1013.617	706	0.000	5
20090402 12:30	16.8	16.8	16.8	60	9.0	13	24	112	0.00	1013.583	711	0.000	5
20090402 12:35	17.1	17.1	17.1	59	9.0	8	19	112	0.00	1013.447	712	0.000	5
20090402 12:40	17.3	17.3	17.3	59	9.2	10	19	112	0.00	1013.414	715	0.000	5
20090402 12:45	17.4	17.4	17.4	58	9.0	11	26	112	0.00	1013.278	717	0.000	5
20090402 12:50	17.6	17.6	17.6	58	9.2	10	26	90	0.00	1013.177	718	0.000	5
20090402 12:55	17.7	17.7	17.7	59	9.6	16	23	112	0.00	1013.143	721	0.000	5
20090402 13:00	17.7	17.7	17.7	57	9.1	10	19	67	0.00	1013.177	721	0.340	5
20090402 13:05	18.0	18.0	18.0	57	9.3	8	24	90	0.00	1013.109	722	0.000	5
20090402 13:10	18.2	18.2	18.2	57	9.5	8	19	90	0.00	1012.973	719	0.000	5
20090402 13:15	18.3	18.3	18.3	57	9.6	14	27	112	0.00	1012.838	727	0.000	5
20090402 13:20	18.2	18.2	18.2	57	9.6	11	21	90	0.00	1012.804	728	0.000	5
20090402 13:25	18.3	18.3	18.3	57	9.6	13	19	112	0.00	1012.770	721	0.000	5
20090402 13:30	18.3	18.3	18.3	58	9.9	10	21	112	0.00	1012.838	718	0.000	5
20090402 13:35	18.4	18.4	18.4	56	9.5	16	32	112	0.00	1012.702	726	0.000	5
20090402 13:40	18.4	18.4	18.4	57	9.7	14	29	112	0.00	1012.804	719	0.000	5
20090402 13:45	18.3	18.3	18.3	57	9.7	10	24	112	0.00	1012.770	714	0.000	5
20090402 13:50	18.6	18.6	18.6	57	9.9	10	23	112	0.00	1012.770	716	0.000	5
20090402 13:55	18.6	18.6	18.6	57	9.9	11	29	112	0.00	1012.770	714	0.000	5
20090402 14:00	18.7	18.7	18.7	56	9.7	14	32	112	0.00	1012.736	715	0.360	5
20090402 14:05	18.7	18.7	18.7	57	10.0	14	24	112	0.00	1012.431	713	0.000	5
20090402 14:10	18.7	18.7	18.7	55	9.4	18	37	112	0.00	1012.330	706	0.000	5
20090402 14:15	18.7	18.7	18.7	55	9.4	16	32	112	0.00	1012.330	709	0.000	5
20090402 14:20	18.8	18.8	18.8	56	9.9	16	32	112	0.00	1012.296	706	0.000	5
20090402 14:25	18.9	18.9	18.9	55	9.6	14	29	112	0.00	1012.262	682	0.000	5
20090402 14:30	18.9	18.9	18.9	56	10.0	11	26	112	0.00	1012.364	687	0.000	4
20090402 14:35	18.9	18.9	18.9	54	9.4	14	34	112	0.00	1012.228	692	0.000	4
20090402 14:40	19.1	19.1	19.1	54	9.5	13	27	90	0.00	1012.161	687	0.000	4
20090402 14:45	19.2	19.2	19.2	54	9.6	14	27	112	0.00	1012.161	686	0.000	4
20090402 14:50	19.2	19.2	19.2	53	9.4	16	35	112	0.00	1012.194	666	0.000	4
20090402 14:55	19.2	19.2	19.2	53	9.4	18	32	112	0.00	1012.262	674	0.000	4
20090402 15:00	19.2	19.2	19.2	53	9.4	21	34	112	0.00	1012.093	669	0.380	4
20090402 15:05	19.4	19.4	19.4	54	9.9	11	24	112	0.00	1012.093	649	0.000	4
20090402 15:10	19.4	19.4	19.4	54	9.9	14	32	112	0.00	1012.025	593	0.000	4
20090402 15:15	19.4	19.4	19.4	53	9.6	11	24	112	0.00	1012.093	642	0.000	4
20090402 15:20	19.4	19.4	19.4	53	9.6	19	35	112	0.00	1012.059	616	0.000	4
20090402 15:25	19.6	19.6	19.6	52	9.4	14	35	112	0.00	1011.957	586	0.000	4
20090402 15:30	19.6	19.6	19.6	53	9.8	18	31	112	0.00	1011.924	607	0.000	3
20090402 15:35	19.7	19.7	19.7	53	9.9	14	26	112	0.00	1011.822	601	0.000	3
20090402 15:40	19.8	19.8	19.8	52	9.6	14	31	112	0.00	1011.720	544	0.000	3
20090402 15:45	19.9	19.9	19.9	53	10.0	11	26	112	0.00	1011.822	580	0.000	3
20090402 15:50	20.0	20.0	20.0	49	9.0	18	29	112	0.00	1011.788	579	0.000	3
20090402 15:55	20.0	20.0	20.0	50	9.3	16	29	112	0.00	1011.890	532	0.000	3
20090402 16:00	20.0	20.0	20.0	50	9.3	14	32	112	0.00	1011.856	507	0.340	3
20090402 16:05	19.9	19.9	19.9	46	8.0	19	37	112	0.00	1011.822	499	0.000	3
20090402 16:10	19.9	19.9	19.9	46	7.9	19	29	112	0.00	1011.890	435	0.000	2
20090402 16:15	19.7	19.7	19.7	45	7.4	23	39	112	0.00	1011.856	385	0.000	2
20090402 16:20	19.7	19.7	19.7	46	7.7	19	32	112	0.00	1011.924	299	0.000	2
20090402 16:25	19.6	19.6	19.6	45	7.3	23	35	112	0.00	1011.686	295	0.000	2
20090402 16:30	19.5	19.5	19.5	46	7.6	24	43	112	0.00	1011.856	303	0.000	2
20090402 16:35	19.6	19.6	19.6	46	7.6	21	35	112	0.00	1011.924	254	0.000	2
20090402 16:40	19.8	19.8	19.8	48	8.4	14	26	112	0.00	1011.856	233	0.000	2
20090402 16:45	19.8	19.8	19.8	46	7.9	16	31	112	0.00	1011.754	273	0.000	2
20090402 16:50	19.8	19.8	19.8	46	7.8	19	32	112	0.00	1011.822	335	0.000	2
20090402 16:55	19.7	19.7	19.7	47	8.0	19	29	112	0.00	1011.856	221	0.000	1
20090402 17:00	19.7	19.7	19.7	48	8.3	16	29	112	0.00	1011.991	178	0.260	1
20090402 17:05	19.8	19.8	19.8	48	8.4	13	26	112	0.00	1011.720	168	0.000	1
20090402 17:10	19.7	19.7	19.7	46	7.7	18	32	112	0.00	1011.720	192	0.000	1
20090402 17:15	19.6	19.6	19.6	48	8.2	16	29	112	0.00	1011.890	184	0.000	1
20090402 17:20	19.5	19.5	19.5	47	7.9	18	34	112	0.00	1011.822	134	0.000	1
20090402 17:25	19.5	19.5	19.5	50	8.8	14	32	112	0.00	1011.686	138	0.000	1
20090402 17:30	19.4	19.4	19.4	50	8.7	14	29	112	0.00	1011.619	205	0.000	1
20090402 17:35	19.3	19.3	19.3	49	8.3	23	37	112	0.00	1011.653	213	0.000	1
20090402 17:40	19.2	19.2	19.2	47	7.6	24	37	112	0.00	1011.585	218	0.000	1
20090402 17:45	19.2	19.2	19.2	50	8.5	19	34	112	0.00	1011.619	233	0.000	1
20090402 17:50	19.1	19.1	19.1	52	9.0	19	34	112	0.00	1011.585	240	0.000	1
20090402 17:55	18.9	18.9	18.9	52	8.8	18	32	112	0.00	1011.653	249	0.000	1
20090402 18:00	18.7	18.7	18.7	53	8.9	16	27	112	0.00	1011.653	223	0.180	1
20090402 18:05	18.5	18.5	18.5	53	8.7	18	37	112	0.00	1011.924	218	0.000	0
20090402 18:10	18.3	18.3	18.3	54	8.9	16	32	135	0.00	1012.025	200	0.000	0
20090402 18:15	18.2	18.2	18.2	53	8.5	18	32	112	0.00	1011.991	184	0.000	0
20090402 18:20	18.1	18.1	18.1	55	8.9	14	35	112	0.00	1011.957	166	0.000	0
20090402 18:25	17.9	17.9	17.9	55	8.8	16	34	112	0.00	1012.093	149	0.000	0
20090402 18:30	17.8	17.8	17.8	55	8.7	14	37	112	0.00	1012.127	132	0.000	0
20090402 18:35	17.7	17.7	17.7	56	8.8	13	27	112	0.00	1012.127	117	0.000	0
20090402 18:40	17.5	17.5	17.5	57	8.9	14	31	112	0.00	1012.161	101	0.000	0
20090402 18:45	17.4	17.4	17.4	57	8.8	14	32	112	0.00	1012.262	87	0.000	0
20090402 18:50	17.2	17.2	17.2	57	8.6	14	27	112	0.00	1012.330	54	0.000	0
20090402 18:55	17.1	17.1	17.1	58	8.7	11	26	112	0.00	1012.296	32	0.000	0
20090402 19:00	16.9	16.9	16.9	58	8.6	11	26	112	0.00	1012.364	29	0.120	0
20090402 19:05	16.8	16.8	16.8	59	8.7	10	23	112	0.00	1012.398	26	0.000	0
20090402 19:10	16.6	16.6	16.6	59	8.6	11	23	112	0.00	1012.465	23	0.000	0
20090402 19:15	16.4	16.4	16.4	59	8.4	13	24	90	0.00	1012.499	20	0.000	0
20090402 19:20	16.3	16.3	16.3	59	8.3	11	27	112	0.00	1012.669	17	0.000	0
20090402 19:25	16.2	16.2	16.2	60	8.4	11	24	112	0.00	1012.533	12	0.000	0
20090402 19:30	16.1	16.1	16.1	60	8.3	11	24	90	0.00	1012.601	11	0.000	0
20090402 19:35	15.8	15.8	15.8	61	8.3	10	23	90	0.00	1012.601	9	0.000	0
20090402 19:40	15.7	15.7	15.7	61	8.2	13	27	112	0.00	1012.736	6	0.000	0
20090402 19:45	15.6	15.6	15.6	62	8.3	11	21	112	0.00	1012.838	1	0.000	0
20090402 19:50	15.4	15.4	15.4	62	8.1	10	19	112	0.00	1012.872	0	0.000	0
20090402 19:55	15.2	15.2	15.2	63	8.2	8	21	112	0.00	1012.906	0	0.000	0
20090402 20:00	15.0	15.0	15.0	63	8.0	8	23	112	0.00	1012.906	0	0.060	0
20090402 20:05	15.0	15.0	15.0	64	8.2	10	21	112	0.00	1012.872	0	0.000	0
20090402 20:10	14.8	14.8	14.8	64	8.1	11	24	112	0.00	1012.906	0	0.000	0
20090402 20:15	14.8	14.8	14.8	64	8.0	16	31	112	0.00	1012.872	0	0.000	0
20090402 20:20	14.7	14.7	14.7	64	7.9	16	27	112	0.00	1013.007	0	0.000	0
20090402 20:25	14.6	14.6	14.6	64	7.8	13	23	112	0.00	1013.109	0	0.000	0
20090402 20:30	14.5	14.5	14.5	64	7.8	13	23	112	0.00	1013.143	0	0.000	0
20090402 20:35	14.4	14.4	14.4	64	7.7	11	26	112	0.00	1013.177	0	0.000	0
20090402 20:40	14.3	14.3	14.3	64	7.6	11	23	112	0.00	1013.210	0	0.000	0
20090402 20:45	14.2	14.2	14.2	64	7.5	11	24	112	0.00	1013.210	0	0.000	0
20090402 20:50	14.1	14.1	14.1	64	7.4	16	27	112	0.00	1013.414	0	0.000	0
20090402 20:55	14.1	14.1	14.1	64	7.3	13	27	112	0.00	1013.583	0	0.000	0
20090402 21:00	13.9	13.9	13.9	65	7.5	13	26	112	0.00	1013.549	0	0.060	0
20090402 21:05	13.8	13.8	13.8	64	7.1	18	29	112	0.00	1013.481	0	0.000	0
20090402 21:10	13.8	13.8	13.8	64	7.1	18	34	112	0.00	1013.414	0	0.000	0
20090402 21:15	13.8	13.8	13.8	64	7.1	18	32	112	0.00	1013.346	0	0.000	0
20090402 21:20	13.7	13.7	13.7	65	7.2	16	32	112	0.00	1013.278	0	0.000	0
20090402 21:25	13.6	13.6	13.6	65	7.1	19	34	112	0.00	1013.346	0	0.000	0
20090402 21:30	13.6	13.6	13.6	65	7.1	18	31	112	0.00	1013.278	0	0.000	0
20090402 21:35	13.5	13.5	13.5	65	7.0	18	31	112	0.00	1013.210	0	0.000	0
20090402 21:40	13.4	13.4	13.4	65	6.9	16	32	112	0.00	1013.244	0	0.000	0
20090402 21:45	13.3	13.3	13.3	65	6.8	16	27	112	0.00	1013.210	0	0.000	0
20090402 21:50	13.3	13.3	13.3	65	6.8	19	31	112	0.00	1013.210	0	0.000	0
20090402 21:55	13.2	13.2	13.2	65	6.8	18	31	112	0.00	1013.244	0	0.000	0
20090402 22:00	13.2	13.2	13.2	64	6.5	18	31	112	0.00	1013.244	0	0.060	0
20090402 22:05	13.2	13.2	13.2	65	6.7	19	31	112	0.00	1013.041	0	0.000	0
20090402 22:10	13.1	13.1	13.1	65	6.6	16	27	112	0.00	1013.041	0	0.000	0
20090402 22:15	13.0	13.0	13.0	65	6.6	16	34	112	0.00	1013.041	0	0.000	0
20090402 22:20	12.9	12.9	12.9	65	6.5	16	31	112	0.00	1013.041	0	0.000	0
20090402 22:25	12.8	12.8	12.8	65	6.4	18	27	112	0.00	1013.041	0	0.000	0
20090402 22:30	12.8	12.8	12.8	65	6.4	18	29	112	0.00	1013.210	0	0.000	0
20090402 22:35	12.7	12.7	12.7	65	6.3	16	29	112	0.00	1013.210	0	0.000	0
20090402 22:40	12.7	12.7	12.7	65	6.3	18	27	112	0.00	1013.041	0	0.000	0
20090402 22:45	12.7	12.7	12.7	64	6.0	18	27	112	0.00	1013.041	0	0.000	0
20090402 22:50	12.6	12.6	12.6	65	6.2	18	29	112	0.00	1013.007	0	0.000	0
20090402 22:55	12.4	12.4	12.4	65	6.0	18	31	112	0.00	1012.906	0	0.000	0
20090402 23:00	12.4	12.4	12.4	65	6.0	19	32	112	0.00	1013.007	0	0.060	0
20090402 23:05	12.3	12.3	12.3	65	5.9	19	29	112	0.00	1012.702	0	0.000	0
20090402 23:10	12.3	12.3	12.3	65	5.9	18	27	112	0.00	1012.804	0	0.000	0
20090402 23:15	12.2	12.2	12.2	65	5.8	19	27	112	0.00	1012.804	0	0.000	0
20090402 23:20	12.1	12.1	12.1	66	5.9	18	27	112	0.00	1012.838	0	0.000	0
20090402 23:25	12.1	12.1	12.1	66	5.9	18	27	112	0.00	1012.973	0	0.000	0
20090402 23:30	12.0	12.0	12.0	66	5.8	16	32	112	0.00	1012.939	0	0.000	0
20090402 23:35	11.9	11.9	11.9	66	5.8	16	27	112	0.00	1012.872	0	0.000	0
20090402 23:40	11.8	11.8	11.8	66	5.6	16	26	112	0.00	1013.007	0	0.000	0
20090402 23:45	11.7	11.7	11.7	66	5.6	14	23	112	0.00	1013.244	0	0.000	0
20090402 23:50	11.7	11.7	11.7	66	5.5	14	23	112	0.00	1013.312	0	0.000	0
20090402 23:55	11.6	11.6	11.6	67	5.6	10	19	112	0.00	1013.414	0	0.000	0
20090402 24:00	11.4	11.4	11.4	67	5.5	10	23	112	0.00	1013.380	0	0.060	0



Please note the license to use and transfer of this data:
http://creativecommons.org/licenses/by-nc-sa/3.0/deed.en

Bitte beachten sie die Lizenz zur Verwertung und Weitergabe der Daten:
http://creativecommons.org/licenses/by-nc-sa/3.0/deed.de

zurück zur Übersicht der Archivdaten (Monats und Tagesdaten)

Cookies helfen bei der Bereitstellung von Inhalten. Durch die Nutzung dieser Seiten erklärst du dich damit einverstanden, dass Cookies auf deinem Rechner gespeichert werden. Weitere Information